createdAt,value
2023-04-03T00:00:48.881Z,408.00
2023-04-03T00:01:48.901Z,409.00
2023-04-03T00:02:48.916Z,410.00
2023-04-03T00:03:48.949Z,409.00
2023-04-03T00:04:48.878Z,409.00
2023-04-03T00:05:48.862Z,407.00
2023-04-03T00:06:48.859Z,407.00
2023-04-03T00:07:48.889Z,408.00
2023-04-03T00:08:48.879Z,408.00
2023-04-03T00:09:48.881Z,411.00
2023-04-03T00:10:48.860Z,410.00
2023-04-03T00:11:48.864Z,409.00
2023-04-03T00:12:48.850Z,410.00
2023-04-03T00:13:48.872Z,412.00
2023-04-03T00:14:48.875Z,411.00
2023-04-03T00:15:48.879Z,413.00
2023-04-03T00:16:48.917Z,414.00
2023-04-03T00:17:48.922Z,414.00
2023-04-03T00:18:48.895Z,414.00
2023-04-03T00:19:48.889Z,414.00
2023-04-03T00:20:48.892Z,417.00
2023-04-03T00:21:48.900Z,417.00
2023-04-03T00:22:48.933Z,417.00
2023-04-03T00:23:48.943Z,415.00
2023-04-03T00:24:48.970Z,415.00
2023-04-03T00:25:48.968Z,414.00
2023-04-03T00:26:48.984Z,413.00
2023-04-03T00:27:48.992Z,412.00
2023-04-03T00:28:48.994Z,412.00
2023-04-03T00:29:49.019Z,413.00
2023-04-03T00:30:49.048Z,413.00
2023-04-03T00:31:49.093Z,414.00
2023-04-03T00:32:49.122Z,416.00
2023-04-03T00:33:49.130Z,417.00
2023-04-03T00:34:49.078Z,416.00
2023-04-03T00:35:49.167Z,414.00
2023-04-03T00:36:49.192Z,412.00
2023-04-03T00:37:49.097Z,410.00
2023-04-03T00:38:49.114Z,410.00
2023-04-03T00:39:49.132Z,413.00
2023-04-03T00:40:49.115Z,413.00
2023-04-03T00:41:49.107Z,413.00
2023-04-03T00:42:49.118Z,414.00
2023-04-03T00:43:49.109Z,413.00
2023-04-03T00:44:49.132Z,412.00
2023-04-03T00:45:49.158Z,412.00
2023-04-03T00:46:49.143Z,410.00
2023-04-03T00:47:49.171Z,411.00
2023-04-03T00:48:49.122Z,411.00
2023-04-03T00:49:49.126Z,413.00
2023-04-03T00:50:49.136Z,413.00
2023-04-03T00:51:49.155Z,414.00
2023-04-03T00:52:49.125Z,414.00
2023-04-03T00:53:49.119Z,414.00
2023-04-03T00:54:49.131Z,414.00
2023-04-03T00:55:49.136Z,415.00
2023-04-03T00:56:49.210Z,415.00
2023-04-03T00:57:49.180Z,414.00
2023-04-03T00:58:49.172Z,413.00
2023-04-03T00:59:49.177Z,415.00
2023-04-03T01:00:49.188Z,414.00
2023-04-03T01:01:49.208Z,415.00
2023-04-03T01:02:49.192Z,416.00
2023-04-03T01:03:49.210Z,417.00
2023-04-03T01:04:49.170Z,420.00
2023-04-03T01:05:49.168Z,422.00
2023-04-03T01:06:49.168Z,424.00
2023-04-03T01:07:49.184Z,424.00
2023-04-03T01:08:49.689Z,422.00
2023-04-03T01:09:49.154Z,418.00
2023-04-03T01:10:49.187Z,420.00
2023-04-03T01:11:49.246Z,421.00
2023-04-03T01:12:49.212Z,421.00
2023-04-03T01:13:49.235Z,420.00
2023-04-03T01:14:49.239Z,419.00
2023-04-03T01:15:49.302Z,420.00
2023-04-03T01:16:49.251Z,421.00
2023-04-03T01:17:49.260Z,421.00
2023-04-03T01:18:49.235Z,423.00
2023-04-03T01:19:49.245Z,422.00
2023-04-03T01:20:49.303Z,421.00
2023-04-03T01:21:49.278Z,421.00
2023-04-03T01:22:49.278Z,421.00
2023-04-03T01:23:49.281Z,418.00
2023-04-03T01:24:49.290Z,417.00
2023-04-03T01:25:49.281Z,417.00
2023-04-03T01:26:49.261Z,417.00
2023-04-03T01:27:49.260Z,419.00
2023-04-03T01:28:49.355Z,419.00
2023-04-03T01:29:49.308Z,419.00
2023-04-03T01:30:49.332Z,419.00
2023-04-03T01:31:49.327Z,418.00
2023-04-03T01:32:49.345Z,419.00
2023-04-03T01:33:49.308Z,419.00
2023-04-03T01:34:49.304Z,420.00
2023-04-03T01:35:49.336Z,419.00
2023-04-03T01:36:49.292Z,418.00
2023-04-03T01:37:49.316Z,417.00
2023-04-03T01:38:49.341Z,414.00
2023-04-03T01:39:49.297Z,413.00
2023-04-03T01:40:49.306Z,410.00
2023-04-03T01:41:49.299Z,405.00
2023-04-03T01:42:49.329Z,407.00
2023-04-03T01:43:49.275Z,406.00
2023-04-03T01:44:49.290Z,405.00
2023-04-03T01:45:49.288Z,405.00
2023-04-03T01:46:49.296Z,405.00
2023-04-03T01:47:49.350Z,405.00
2023-04-03T01:48:49.296Z,407.00
2023-04-03T01:49:49.286Z,408.00
2023-04-03T01:50:49.285Z,410.00
2023-04-03T01:51:49.276Z,410.00
2023-04-03T01:52:49.277Z,408.00
2023-04-03T01:53:49.297Z,407.00
2023-04-03T01:54:49.311Z,405.00
2023-04-03T01:55:49.283Z,409.00
2023-04-03T01:56:49.280Z,408.00
2023-04-03T01:57:49.325Z,406.00
2023-04-03T01:58:49.303Z,407.00
2023-04-03T01:59:49.299Z,405.00
2023-04-03T02:00:49.367Z,404.00
2023-04-03T02:01:49.318Z,406.00
2023-04-03T02:02:49.354Z,407.00
2023-04-03T02:03:49.489Z,408.00
2023-04-03T02:04:49.359Z,407.00
2023-04-03T02:05:49.353Z,408.00
2023-04-03T02:06:49.359Z,407.00
2023-04-03T02:07:49.348Z,410.00
2023-04-03T02:08:49.341Z,412.00
2023-04-03T02:09:49.354Z,411.00
2023-04-03T02:10:49.350Z,414.00
2023-04-03T02:11:49.334Z,415.00
2023-04-03T02:12:49.346Z,416.00
2023-04-03T02:13:49.359Z,417.00
2023-04-03T02:14:49.350Z,416.00
2023-04-03T02:15:49.364Z,417.00
2023-04-03T02:16:49.402Z,416.00
2023-04-03T02:17:49.421Z,415.00
2023-04-03T02:18:49.371Z,413.00
2023-04-03T02:19:49.372Z,414.00
2023-04-03T02:20:49.373Z,412.00
2023-04-03T02:21:49.374Z,412.00
2023-04-03T02:22:49.376Z,415.00
2023-04-03T02:23:49.354Z,416.00
2023-04-03T02:24:49.359Z,418.00
2023-04-03T02:25:49.358Z,416.00
2023-04-03T02:26:49.359Z,415.00
2023-04-03T02:27:49.365Z,413.00
2023-04-03T02:28:49.368Z,412.00
2023-04-03T02:29:49.340Z,414.00
2023-04-03T02:30:49.391Z,412.00
2023-04-03T02:31:49.348Z,411.00
2023-04-03T02:32:49.379Z,413.00
2023-04-03T02:33:49.348Z,413.00
2023-04-03T02:34:49.363Z,413.00
2023-04-03T02:35:49.378Z,415.00
2023-04-03T02:36:49.353Z,416.00
2023-04-03T02:37:49.361Z,416.00
2023-04-03T02:38:49.339Z,415.00
2023-04-03T02:39:49.328Z,415.00
2023-04-03T02:40:49.334Z,416.00
2023-04-03T02:41:49.343Z,418.00
2023-04-03T02:42:49.331Z,420.00
2023-04-03T02:43:49.335Z,421.00
2023-04-03T02:44:49.344Z,420.00
2023-04-03T02:45:49.349Z,418.00
2023-04-03T02:46:49.318Z,418.00
2023-04-03T02:47:49.398Z,416.00
2023-04-03T02:48:49.345Z,418.00
2023-04-03T02:49:49.357Z,416.00
2023-04-03T02:50:49.348Z,416.00
2023-04-03T02:51:49.328Z,416.00
2023-04-03T02:52:49.326Z,414.00
2023-04-03T02:53:49.330Z,414.00
2023-04-03T02:54:49.318Z,414.00
2023-04-03T02:55:49.320Z,417.00
2023-04-03T02:56:49.385Z,421.00
2023-04-03T02:57:49.325Z,421.00
2023-04-03T02:58:49.330Z,421.00
2023-04-03T02:59:49.371Z,421.00
2023-04-03T03:00:49.361Z,418.00
2023-04-03T03:01:49.406Z,419.00
2023-04-03T03:02:49.470Z,420.00
2023-04-03T03:03:49.353Z,421.00
2023-04-03T03:04:49.412Z,420.00
2023-04-03T03:05:49.360Z,421.00
2023-04-03T03:06:49.369Z,423.00
2023-04-03T03:07:49.377Z,422.00
2023-04-03T03:08:49.362Z,422.00
2023-04-03T03:09:49.382Z,422.00
2023-04-03T03:10:49.388Z,420.00
2023-04-03T03:11:49.394Z,419.00
2023-04-03T03:12:49.399Z,422.00
2023-04-03T03:13:49.420Z,423.00
2023-04-03T03:14:49.421Z,421.00
2023-04-03T03:15:49.423Z,420.00
2023-04-03T03:16:49.410Z,420.00
2023-04-03T03:17:49.454Z,422.00
2023-04-03T03:18:49.435Z,422.00
2023-04-03T03:19:49.423Z,422.00
2023-04-03T03:20:49.424Z,422.00
2023-04-03T03:21:49.418Z,423.00
2023-04-03T03:22:49.447Z,421.00
2023-04-03T03:23:49.434Z,421.00
2023-04-03T03:24:49.454Z,422.00
2023-04-03T03:25:49.486Z,421.00
2023-04-03T03:26:49.443Z,422.00
2023-04-03T03:27:49.462Z,422.00
2023-04-03T03:28:49.457Z,423.00
2023-04-03T03:29:49.455Z,420.00
2023-04-03T03:30:49.475Z,419.00
2023-04-03T03:31:49.530Z,419.00
2023-04-03T03:32:49.554Z,420.00
2023-04-03T03:33:49.441Z,421.00
2023-04-03T03:34:49.487Z,421.00
2023-04-03T03:35:49.476Z,420.00
2023-04-03T03:36:49.481Z,421.00
2023-04-03T03:37:49.477Z,419.00
2023-04-03T03:38:49.488Z,421.00
2023-04-03T03:39:49.480Z,423.00
2023-04-03T03:40:49.512Z,423.00
2023-04-03T03:41:49.486Z,423.00
2023-04-03T03:42:49.517Z,422.00
2023-04-03T03:43:49.505Z,422.00
2023-04-03T03:44:49.517Z,422.00
2023-04-03T03:45:49.512Z,420.00
2023-04-03T03:46:49.519Z,415.00
2023-04-03T03:47:49.553Z,414.00
2023-04-03T03:48:49.540Z,413.00
2023-04-03T03:49:49.542Z,413.00
2023-04-03T03:50:49.554Z,413.00
2023-04-03T03:51:49.555Z,410.00
2023-04-03T03:52:49.541Z,409.00
2023-04-03T03:53:49.561Z,409.00
2023-04-03T03:54:49.564Z,408.00
2023-04-03T03:55:49.573Z,408.00
2023-04-03T03:56:49.633Z,409.00
2023-04-03T03:57:49.579Z,410.00
2023-04-03T03:58:49.588Z,408.00
2023-04-03T03:59:49.592Z,408.00
2023-04-03T04:00:49.627Z,408.00
2023-04-03T04:01:49.731Z,406.00
2023-04-03T04:02:49.661Z,406.00
2023-04-03T04:03:49.762Z,405.00
2023-04-03T04:04:49.656Z,405.00
2023-04-03T04:05:49.655Z,405.00
2023-04-03T04:06:49.675Z,405.00
2023-04-03T04:07:49.729Z,408.00
2023-04-03T04:08:49.703Z,408.00
2023-04-03T04:09:49.684Z,411.00
2023-04-03T04:10:49.726Z,415.00
2023-04-03T04:11:49.717Z,416.00
2023-04-03T04:12:49.724Z,417.00
2023-04-03T04:13:49.742Z,416.00
2023-04-03T04:14:49.749Z,418.00
2023-04-03T04:15:49.770Z,421.00
2023-04-03T04:16:49.793Z,421.00
2023-04-03T04:17:49.790Z,418.00
2023-04-03T04:18:49.774Z,419.00
2023-04-03T04:19:49.802Z,417.00
2023-04-03T04:20:49.790Z,415.00
2023-04-03T04:21:49.792Z,414.00
2023-04-03T04:22:49.821Z,415.00
2023-04-03T04:23:49.826Z,415.00
2023-04-03T04:24:49.817Z,416.00
2023-04-03T04:25:49.869Z,416.00
2023-04-03T04:26:49.853Z,416.00
2023-04-03T04:27:49.856Z,416.00
2023-04-03T04:28:49.867Z,413.00
2023-04-03T04:29:49.864Z,413.00
2023-04-03T04:30:49.922Z,412.00
2023-04-03T04:31:49.907Z,413.00
2023-04-03T04:32:49.954Z,411.00
2023-04-03T04:33:49.907Z,413.00
2023-04-03T04:34:49.968Z,411.00
2023-04-03T04:35:50.049Z,412.00
2023-04-03T04:36:50.018Z,413.00
2023-04-03T04:37:49.960Z,413.00
2023-04-03T04:38:49.971Z,412.00
2023-04-03T04:39:49.960Z,412.00
2023-04-03T04:40:49.990Z,412.00
2023-04-03T04:41:49.977Z,413.00
2023-04-03T04:42:49.998Z,413.00
2023-04-03T04:43:50.008Z,412.00
2023-04-03T04:44:50.011Z,411.00
2023-04-03T04:45:50.036Z,408.00
2023-04-03T04:46:50.043Z,409.00
2023-04-03T04:47:50.065Z,409.00
2023-04-03T04:48:50.053Z,409.00
2023-04-03T04:49:50.065Z,409.00
2023-04-03T04:50:50.073Z,410.00
2023-04-03T04:51:52.402Z,410.00
2023-04-03T04:52:50.168Z,412.00
2023-04-03T04:53:50.190Z,412.00
2023-04-03T04:54:50.185Z,413.00
2023-04-03T04:55:50.193Z,413.00
2023-04-03T04:56:50.275Z,412.00
2023-04-03T04:57:50.228Z,410.00
2023-04-03T04:58:50.245Z,410.00
2023-04-03T04:59:50.258Z,410.00
2023-04-03T05:00:50.277Z,409.00
2023-04-03T05:01:50.325Z,406.00
2023-04-03T05:02:50.351Z,405.00
2023-04-03T05:03:50.338Z,406.00
2023-04-03T05:04:50.355Z,408.00
2023-04-03T05:05:50.348Z,408.00
2023-04-03T05:06:50.357Z,407.00
2023-04-03T05:07:50.385Z,408.00
2023-04-03T05:08:50.405Z,408.00
2023-04-03T05:09:50.385Z,407.00
2023-04-03T05:10:50.418Z,406.00
2023-04-03T05:11:50.426Z,405.00
2023-04-03T05:12:50.425Z,404.00
2023-04-03T05:13:50.444Z,404.00
2023-04-03T05:14:50.452Z,405.00
2023-04-03T05:15:50.520Z,409.00
2023-04-03T05:16:51.576Z,409.00
2023-04-03T05:17:50.503Z,410.00
2023-04-03T05:18:50.518Z,412.00
2023-04-03T05:19:50.543Z,412.00
2023-04-03T05:20:50.544Z,409.00
2023-04-03T05:21:50.636Z,408.00
2023-04-03T05:22:50.574Z,408.00
2023-04-03T05:23:50.592Z,407.00
2023-04-03T05:24:50.615Z,407.00
2023-04-03T05:25:50.587Z,407.00
2023-04-03T05:26:50.602Z,410.00
2023-04-03T05:27:50.624Z,411.00
2023-04-03T05:28:50.645Z,413.00
2023-04-03T05:29:50.636Z,413.00
2023-04-03T05:30:50.651Z,414.00
2023-04-03T05:31:50.733Z,414.00
2023-04-03T05:32:50.714Z,416.00
2023-04-03T05:33:50.710Z,415.00
2023-04-03T05:34:50.725Z,413.00
2023-04-03T05:35:50.762Z,415.00
2023-04-03T05:36:50.751Z,415.00
2023-04-03T05:37:50.808Z,415.00
2023-04-03T05:38:50.764Z,417.00
2023-04-03T05:39:50.770Z,415.00
2023-04-03T05:40:50.810Z,414.00
2023-04-03T05:41:50.830Z,417.00
2023-04-03T05:42:50.867Z,418.00
2023-04-03T05:43:50.827Z,418.00
2023-04-03T05:44:50.854Z,417.00
2023-04-03T05:45:50.874Z,417.00
2023-04-03T05:46:50.871Z,414.00
2023-04-03T05:47:50.945Z,414.00
2023-04-03T05:48:50.887Z,412.00
2023-04-03T05:49:50.889Z,413.00
2023-04-03T05:50:50.916Z,414.00
2023-04-03T05:51:50.945Z,413.00
2023-04-03T05:52:50.953Z,412.00
2023-04-03T05:53:50.954Z,411.00
2023-04-03T05:54:50.961Z,409.00
2023-04-03T05:55:50.966Z,411.00
2023-04-03T05:56:51.029Z,410.00
2023-04-03T05:57:51.019Z,413.00
2023-04-03T05:58:51.030Z,416.00
2023-04-03T05:59:51.039Z,415.00
2023-04-03T06:00:51.036Z,414.00
2023-04-03T06:01:51.072Z,411.00
2023-04-03T06:02:51.183Z,413.00
2023-04-03T06:03:51.328Z,413.00
2023-04-03T06:04:51.200Z,414.00
2023-04-03T06:05:51.109Z,413.00
2023-04-03T06:06:51.135Z,414.00
2023-04-03T06:07:51.181Z,415.00
2023-04-03T06:08:51.162Z,417.00
2023-04-03T06:09:51.146Z,413.00
2023-04-03T06:10:51.156Z,412.00
2023-04-03T06:11:51.199Z,411.00
2023-04-03T06:12:51.216Z,409.00
2023-04-03T06:13:51.212Z,408.00
2023-04-03T06:14:51.223Z,408.00
2023-04-03T06:15:51.223Z,409.00
2023-04-03T06:16:51.260Z,411.00
2023-04-03T06:17:51.239Z,413.00
2023-04-03T06:18:51.267Z,415.00
2023-04-03T06:19:51.263Z,415.00
2023-04-03T06:20:51.255Z,415.00
2023-04-03T06:21:51.302Z,415.00
2023-04-03T06:22:51.275Z,415.00
2023-04-03T06:23:51.281Z,413.00
2023-04-03T06:24:51.293Z,416.00
2023-04-03T06:25:51.313Z,417.00
2023-04-03T06:26:51.558Z,417.00
2023-04-03T06:27:51.333Z,415.00
2023-04-03T06:28:51.347Z,415.00
2023-04-03T06:29:51.361Z,414.00
2023-04-03T06:30:51.420Z,413.00
2023-04-03T06:31:51.377Z,412.00
2023-04-03T06:32:51.442Z,410.00
2023-04-03T06:33:51.406Z,410.00
2023-04-03T06:34:51.423Z,409.00
2023-04-03T06:35:51.427Z,413.00
2023-04-03T06:36:51.417Z,411.00
2023-04-03T06:37:51.439Z,412.00
2023-04-03T06:38:51.428Z,414.00
2023-04-03T06:39:51.448Z,416.00
2023-04-03T06:40:51.441Z,415.00
2023-04-03T06:41:51.446Z,417.00
2023-04-03T06:42:51.480Z,417.00
2023-04-03T06:43:51.474Z,418.00
2023-04-03T06:44:51.446Z,415.00
2023-04-03T06:45:51.494Z,414.00
2023-04-03T06:46:51.449Z,416.00
2023-04-03T06:47:51.491Z,416.00
2023-04-03T06:48:51.455Z,416.00
2023-04-03T06:49:51.475Z,416.00
2023-04-03T06:50:51.457Z,414.00
2023-04-03T06:51:51.484Z,414.00
2023-04-03T06:52:51.487Z,414.00
2023-04-03T06:53:51.464Z,412.00
2023-04-03T06:54:51.481Z,411.00
2023-04-03T06:55:51.491Z,410.00
2023-04-03T06:56:51.493Z,408.00
2023-04-03T06:57:51.472Z,407.00
2023-04-03T06:58:51.468Z,406.00
2023-04-03T06:59:51.459Z,408.00
2023-04-03T07:00:51.462Z,408.00
2023-04-03T07:01:51.554Z,411.00
2023-04-03T07:02:51.536Z,412.00
2023-04-03T07:03:51.495Z,413.00
2023-04-03T07:04:51.677Z,412.00
2023-04-03T07:05:51.497Z,413.00
2023-04-03T07:06:51.509Z,415.00
2023-04-03T07:07:51.635Z,414.00
2023-04-03T07:08:51.488Z,416.00
2023-04-03T07:09:51.479Z,413.00
2023-04-03T07:10:51.490Z,414.00
2023-04-03T07:11:51.486Z,416.00
2023-04-03T07:12:51.488Z,415.00
2023-04-03T07:13:51.495Z,415.00
2023-04-03T07:14:51.462Z,415.00
2023-04-03T07:15:51.514Z,414.00
2023-04-03T07:16:51.462Z,415.00
2023-04-03T07:17:51.483Z,414.00
2023-04-03T07:18:51.461Z,414.00
2023-04-03T07:19:51.492Z,416.00
2023-04-03T07:20:51.454Z,415.00
2023-04-03T07:21:51.653Z,415.00
2023-04-03T07:22:51.478Z,416.00
2023-04-03T07:23:51.514Z,415.00
2023-04-03T07:24:51.474Z,414.00
2023-04-03T07:25:51.474Z,411.00
2023-04-03T07:26:51.486Z,411.00
2023-04-03T07:27:51.481Z,411.00
2023-04-03T07:28:51.466Z,412.00
2023-04-03T07:29:51.474Z,411.00
2023-04-03T07:30:51.481Z,410.00
2023-04-03T07:31:51.538Z,409.00
2023-04-03T07:32:51.559Z,408.00
2023-04-03T07:33:51.525Z,405.00
2023-04-03T07:34:51.483Z,404.00
2023-04-03T07:35:51.515Z,404.00
2023-04-03T07:36:51.504Z,402.00
2023-04-03T07:37:51.491Z,401.00
2023-04-03T07:38:51.529Z,400.00
2023-04-03T07:39:51.506Z,401.00
2023-04-03T07:40:51.525Z,401.00
2023-04-03T07:41:51.543Z,400.00
2023-04-03T07:42:51.534Z,398.00
2023-04-03T07:43:51.546Z,398.00
2023-04-03T07:44:51.542Z,397.00
2023-04-03T07:45:51.737Z,400.00
2023-04-03T07:46:51.553Z,399.00
2023-04-03T07:47:51.638Z,400.00
2023-04-03T07:48:51.606Z,402.00
2023-04-03T07:49:51.636Z,401.00
2023-04-03T07:50:51.646Z,403.00
2023-04-03T07:51:51.624Z,407.00
2023-04-03T07:52:51.648Z,406.00
2023-04-03T07:53:51.645Z,407.00
2023-04-03T07:54:51.632Z,407.00
2023-04-03T07:55:51.639Z,407.00
2023-04-03T07:56:51.691Z,406.00
2023-04-03T07:57:51.777Z,407.00
2023-04-03T07:58:51.723Z,406.00
2023-04-03T07:59:51.734Z,407.00
2023-04-03T08:00:51.749Z,407.00
2023-04-03T08:01:51.802Z,409.00
2023-04-03T08:02:51.840Z,407.00
2023-04-03T08:03:52.007Z,407.00
2023-04-03T08:04:51.985Z,408.00
2023-04-03T08:05:51.872Z,410.00
2023-04-03T08:06:51.907Z,411.00
2023-04-03T08:07:51.918Z,413.00
2023-04-03T08:08:52.021Z,411.00
2023-04-03T08:09:51.970Z,412.00
2023-04-03T08:10:51.995Z,411.00
2023-04-03T08:11:52.040Z,412.00
2023-04-03T08:12:52.059Z,413.00
2023-04-03T08:13:53.584Z,415.00
2023-04-03T08:14:52.170Z,414.00
2023-04-03T08:15:52.219Z,415.00
2023-04-03T08:16:52.373Z,413.00
2023-04-03T08:17:52.372Z,412.00
2023-04-03T08:18:52.406Z,414.00
2023-04-03T08:19:52.462Z,413.00
2023-04-03T08:20:52.531Z,412.00
2023-04-03T08:21:52.591Z,414.00
2023-04-03T08:22:52.642Z,415.00
2023-04-03T08:23:52.705Z,416.00
2023-04-03T08:24:59.541Z,416.00
2023-04-03T08:25:53.741Z,413.00
2023-04-03T08:26:52.746Z,415.00
2023-04-03T08:27:52.731Z,418.00
2023-04-03T08:28:52.711Z,419.00
2023-04-03T08:29:52.712Z,419.00
2023-04-03T08:30:52.721Z,420.00
2023-04-03T08:31:52.704Z,418.00
2023-04-03T08:32:52.748Z,418.00
2023-04-03T08:33:52.785Z,421.00
2023-04-03T08:34:52.848Z,420.00
2023-04-03T08:35:52.909Z,419.00
2023-04-03T08:36:52.959Z,421.00
2023-04-03T08:37:53.019Z,422.00
2023-04-03T08:38:53.085Z,421.00
2023-04-03T08:39:53.124Z,421.00
2023-04-03T08:40:53.260Z,419.00
2023-04-03T08:41:53.260Z,418.00
2023-04-03T08:42:53.319Z,415.00
2023-04-03T08:43:53.366Z,414.00
2023-04-03T08:44:53.445Z,413.00
2023-04-03T08:45:53.526Z,411.00
2023-04-03T08:46:53.573Z,412.00
2023-04-03T08:47:55.271Z,416.00
2023-04-03T08:48:53.628Z,418.00
2023-04-03T08:49:53.633Z,416.00
2023-04-03T08:50:53.597Z,416.00
2023-04-03T08:51:53.612Z,416.00
2023-04-03T08:52:53.619Z,414.00
2023-04-03T08:53:53.585Z,413.00
2023-04-03T08:54:53.578Z,412.00
2023-04-03T08:55:53.565Z,413.00
2023-04-03T08:56:53.652Z,411.00
2023-04-03T08:57:53.549Z,413.00
2023-04-03T08:58:53.550Z,411.00
2023-04-03T08:59:53.530Z,410.00
2023-04-03T09:00:53.533Z,411.00
2023-04-03T09:01:53.572Z,412.00
2023-04-03T09:02:53.521Z,411.00
2023-04-03T09:03:53.540Z,412.00
2023-04-03T09:04:53.511Z,411.00
2023-04-03T09:05:53.510Z,413.00
2023-04-03T09:06:53.484Z,414.00
2023-04-03T09:07:53.468Z,412.00
2023-04-03T09:08:53.482Z,410.00
2023-04-03T09:09:53.456Z,411.00
2023-04-03T09:10:53.455Z,412.00
2023-04-03T09:11:53.453Z,414.00
2023-04-03T09:12:53.520Z,414.00
2023-04-03T09:13:53.436Z,413.00
2023-04-03T09:14:53.427Z,411.00
2023-04-03T09:15:53.447Z,412.00
2023-04-03T09:16:53.421Z,414.00
2023-04-03T09:17:53.453Z,412.00
2023-04-03T09:18:53.399Z,411.00
2023-04-03T09:19:53.393Z,410.00
2023-04-03T09:20:53.391Z,408.00
2023-04-03T09:21:53.361Z,409.00
2023-04-03T09:22:53.371Z,411.00
2023-04-03T09:23:53.363Z,412.00
2023-04-03T09:24:53.343Z,413.00
2023-04-03T09:25:53.330Z,413.00
2023-04-03T09:26:53.424Z,413.00
2023-04-03T09:27:53.416Z,410.00
2023-04-03T09:28:53.545Z,412.00
2023-04-03T09:29:53.530Z,411.00
2023-04-03T09:30:53.574Z,413.00
2023-04-03T09:31:53.654Z,415.00
2023-04-03T09:32:53.678Z,417.00
2023-04-03T09:33:53.698Z,417.00
2023-04-03T09:34:53.753Z,414.00
2023-04-03T09:35:53.860Z,413.00
2023-04-03T09:36:53.857Z,413.00
2023-04-03T09:37:53.923Z,411.00
2023-04-03T09:38:53.980Z,412.00
2023-04-03T09:39:54.013Z,414.00
2023-04-03T09:40:54.074Z,415.00
2023-04-03T09:41:54.111Z,415.00
2023-04-03T09:43:00.945Z,418.00
2023-04-03T09:43:55.195Z,419.00
2023-04-03T09:44:54.247Z,418.00
2023-04-03T09:45:54.141Z,417.00
2023-04-03T09:46:54.225Z,418.00
2023-04-03T09:47:54.169Z,416.00
2023-04-03T09:49:05.075Z,415.00
2023-04-03T09:49:55.154Z,416.00
2023-04-03T09:50:54.105Z,414.00
2023-04-03T09:51:54.101Z,413.00
2023-04-03T09:52:54.107Z,413.00
2023-04-03T09:53:54.084Z,412.00
2023-04-03T09:54:54.094Z,413.00
2023-04-03T09:55:54.083Z,416.00
2023-04-03T09:56:54.113Z,417.00
2023-04-03T09:57:54.082Z,415.00
2023-04-03T09:58:54.078Z,413.00
2023-04-03T09:59:54.130Z,413.00
2023-04-03T10:00:54.242Z,415.00
2023-04-03T10:01:54.229Z,414.00
2023-04-03T10:02:54.284Z,411.00
2023-04-03T10:03:54.308Z,409.00
2023-04-03T10:05:06.569Z,411.00
2023-04-03T10:05:55.346Z,410.00
2023-04-03T10:06:54.352Z,410.00
2023-04-03T10:08:01.780Z,413.00
2023-04-03T10:08:55.321Z,414.00
2023-04-03T10:09:54.322Z,413.00
2023-04-03T10:10:54.325Z,415.00
2023-04-03T10:11:54.295Z,413.00
2023-04-03T10:12:54.316Z,412.00
2023-04-03T10:13:54.290Z,412.00
2023-04-03T10:14:54.271Z,412.00
2023-04-03T10:15:54.268Z,413.00
2023-04-03T10:16:54.382Z,411.00
2023-04-03T10:17:54.281Z,409.00
2023-04-03T10:18:54.265Z,409.00
2023-04-03T10:19:54.235Z,409.00
2023-04-03T10:20:54.298Z,411.00
2023-04-03T10:21:54.325Z,412.00
2023-04-03T10:22:54.383Z,412.00
2023-04-03T10:23:54.418Z,413.00
2023-04-03T10:24:54.467Z,416.00
2023-04-03T10:25:54.507Z,416.00
2023-04-03T10:26:54.553Z,415.00
2023-04-03T10:27:54.590Z,416.00
2023-04-03T10:28:54.616Z,415.00
2023-04-03T10:29:54.669Z,416.00
2023-04-03T10:30:54.791Z,416.00
2023-04-03T10:31:54.742Z,417.00
2023-04-03T10:32:54.901Z,416.00
2023-04-03T10:33:54.840Z,414.00
2023-04-03T10:35:04.480Z,415.00
2023-04-03T10:35:55.902Z,415.00
2023-04-03T10:36:54.875Z,416.00
2023-04-03T10:37:54.869Z,416.00
2023-04-03T10:38:54.847Z,416.00
2023-04-03T10:39:54.865Z,417.00
2023-04-03T10:40:54.829Z,414.00
2023-04-03T10:42:05.477Z,414.00
2023-04-03T10:42:55.842Z,415.00
2023-04-03T10:43:54.810Z,416.00
2023-04-03T10:44:54.827Z,416.00
2023-04-03T10:45:54.835Z,416.00
2023-04-03T10:46:54.801Z,415.00
2023-04-03T10:47:54.828Z,414.00
2023-04-03T10:48:54.874Z,416.00
2023-04-03T10:49:59.892Z,415.00
2023-04-03T10:50:55.792Z,410.00
2023-04-03T10:51:54.766Z,411.00
2023-04-03T10:52:54.759Z,412.00
2023-04-03T10:53:54.755Z,411.00
2023-04-03T10:54:54.733Z,412.00
2023-04-03T10:55:54.725Z,413.00
2023-04-03T10:57:04.559Z,412.00
2023-04-03T10:57:55.790Z,410.00
2023-04-03T10:58:54.711Z,413.00
2023-04-03T10:59:54.699Z,411.00
2023-04-03T11:00:54.682Z,408.00
2023-04-03T11:01:54.724Z,410.00
2023-04-03T11:02:54.758Z,409.00
2023-04-03T11:03:54.757Z,408.00
2023-04-03T11:04:54.753Z,408.00
2023-04-03T11:05:54.663Z,411.00
2023-04-03T11:06:54.653Z,412.00
2023-04-03T11:07:54.700Z,413.00
2023-04-03T11:08:54.616Z,414.00
2023-04-03T11:09:54.629Z,418.00
2023-04-03T11:10:54.668Z,421.00
2023-04-03T11:11:54.683Z,420.00
2023-04-03T11:12:54.726Z,419.00
2023-04-03T11:13:54.799Z,419.00
2023-04-03T11:14:54.834Z,417.00
2023-04-03T11:15:54.883Z,418.00
2023-04-03T11:16:54.988Z,418.00
2023-04-03T11:17:55.017Z,414.00
2023-04-03T11:18:54.977Z,413.00
2023-04-03T11:19:55.028Z,410.00
2023-04-03T11:20:55.155Z,412.00
2023-04-03T11:21:55.134Z,411.00
2023-04-03T11:22:55.163Z,410.00
2023-04-03T11:23:55.204Z,411.00
2023-04-03T11:24:55.248Z,411.00
2023-04-03T11:25:55.303Z,414.00
2023-04-03T11:26:55.311Z,416.00
2023-04-03T11:27:55.354Z,416.00
2023-04-03T11:28:55.396Z,417.00
2023-04-03T11:29:55.449Z,417.00
2023-04-03T11:30:56.929Z,415.00
2023-04-03T11:31:55.604Z,415.00
2023-04-03T11:32:55.662Z,415.00
2023-04-03T11:33:55.604Z,416.00
2023-04-03T11:34:55.638Z,417.00
2023-04-03T11:35:55.713Z,418.00
2023-04-03T11:36:55.842Z,420.00
2023-04-03T11:37:55.770Z,419.00
2023-04-03T11:38:55.892Z,416.00
2023-04-03T11:39:55.866Z,415.00
2023-04-03T11:40:55.889Z,416.00
2023-04-03T11:42:06.791Z,413.00
2023-04-03T11:42:56.937Z,411.00
2023-04-03T11:43:55.981Z,410.00
2023-04-03T11:44:55.905Z,412.00
2023-04-03T11:45:55.897Z,413.00
2023-04-03T11:46:57.935Z,413.00
2023-04-03T11:47:55.946Z,414.00
2023-04-03T11:48:55.918Z,417.00
2023-04-03T11:49:55.959Z,415.00
2023-04-03T11:50:56.012Z,414.00
2023-04-03T11:51:56.075Z,414.00
2023-04-03T11:52:56.159Z,414.00
2023-04-03T11:53:56.109Z,416.00
2023-04-03T11:54:56.182Z,415.00
2023-04-03T11:55:56.199Z,415.00
2023-04-03T11:56:56.265Z,413.00
2023-04-03T11:57:56.276Z,413.00
2023-04-03T11:58:56.308Z,413.00
2023-04-03T11:59:56.356Z,411.00
2023-04-03T12:00:56.388Z,412.00
2023-04-03T12:01:56.471Z,412.00
2023-04-03T12:02:56.512Z,412.00
2023-04-03T12:03:56.582Z,413.00
2023-04-03T12:04:56.563Z,414.00
2023-04-03T12:05:56.589Z,414.00
2023-04-03T12:06:56.633Z,414.00
2023-04-03T12:07:56.672Z,412.00
2023-04-03T12:08:56.816Z,410.00
2023-04-03T12:09:56.769Z,407.00
2023-04-03T12:10:56.796Z,409.00
2023-04-03T12:11:56.852Z,405.00
2023-04-03T12:12:56.891Z,404.00
2023-04-03T12:13:56.952Z,402.00
2023-04-03T12:14:56.977Z,402.00
2023-04-03T12:15:57.001Z,401.00
2023-04-03T12:16:57.081Z,402.00
2023-04-03T12:17:57.121Z,404.00
2023-04-03T12:18:57.147Z,405.00
2023-04-03T12:19:57.176Z,404.00
2023-04-03T12:20:57.241Z,405.00
2023-04-03T12:21:57.248Z,407.00
2023-04-03T12:22:57.293Z,406.00
2023-04-03T12:23:57.329Z,404.00
2023-04-03T12:24:57.508Z,405.00
2023-04-03T12:25:57.417Z,404.00
2023-04-03T12:26:57.464Z,403.00
2023-04-03T12:27:57.494Z,403.00
2023-04-03T12:28:57.563Z,403.00